HALF-HOURLY OBSERVATIONS INDEX

043

Maranoa

ROMA AIRPORT

Site: 043091
Alt: 307.4m
2km NNW of ROMA


  Time     Wind        Temp  DP   Baro     Rain since   Rain past  Vis(m), Cloud(base in m), Weather
  local        km/h                         9am  last   hr   10m    
Tue 18:00    E 19/ 26  32.7 12.3  1009.2    0.0   0.0   0.0   0.0   10000|BR3600 
Tue 18:30    E 15/ 22  31.9 12.7  1009.6    0.0   0.0   0.0   0.0   10000|FE3600 
Tue 19:00    E 15/ 19  30.7 14.3  1010.0    0.0   0.0   0.0   0.0   10000 
Tue 19:30   NE  9/ 13  29.0 14.8  1010.6    0.0   0.0   0.0   0.0   10000 
Tue 20:00  NNE 11/ 15  29.1 15.6  1010.7    0.0   0.0   0.0   0.0   10000|FE3600 
Tue 20:30  NNE  6/  9  28.2 15.1  1010.8    0.0   0.0   0.0   0.0   10000 
Tue 21:00  NNE  7/  9  27.1 15.5  1010.9    0.0   0.0   0.0   0.0   10000 
Tue 21:30   NE  7/ 11  25.8 15.5  1011.1    0.0   0.0   0.0   0.0   10000 
Tue 22:00  WSW  4/ 13  26.4 15.4  1011.5    0.0   0.0   0.0   0.0   10000 
Tue 22:30    S  4/  6  25.3 15.6  1011.6    0.0   0.0   0.0   0.0   10000 
Tue 23:00    C  0/  0  24.3 15.8  1011.6    0.0   0.0   0.0   0.0   10000 

ST GEORGE AIRPORT

Site: 043109
Alt: 198.5m
4km SSE of ST GEORGE


  Time     Wind        Temp  DP   Baro     Rain since   Rain past  Vis(m), Cloud(base in m), Weather
  local        km/h                         9am  last   hr   10m    
Tue 18:00   SE  9/ 11  33.4 12.4  1008.3    0.0   0.0   0.0   0.0   10000 
Tue 18:30    E  9/ 13  32.7 13.4  1008.6    0.0   0.0   0.0   0.0   10000 
Tue 19:00    N  9/ 13  31.5 15.5  1008.8    0.0   0.0   0.0   0.0   10000 
Tue 19:30  NNE  7/  9  30.4 16.0  1009.1    0.0   0.0   0.0   0.0   10000 
Tue 20:00  NNE  6/  7  29.1 17.3  1009.5    0.0   0.0   0.0   0.0   10000 
Tue 20:30  ENE  6/  7  28.9 17.1  1009.7    0.0   0.0   0.0   0.0   10000 
Tue 21:00  ENE  9/ 11  28.6 17.2  1009.8    0.0   0.0   0.0   0.0   10000 
Tue 21:30   SE 22/ 33  28.1 16.1  1010.6    0.0   0.0   0.0   0.0   10000|SC2820 
Tue 22:00  ESE 15/ 20  26.5 16.4  1011.3    0.0   0.0   0.0   0.0   10000 
Tue 22:30  ESE 15/ 24  26.0 16.5  1011.2    0.0   0.0   0.0   0.0   10000 
Tue 23:00    E 20/ 37  25.9 17.0  1011.6    0.0   0.0   0.0   0.0   10000